createdAt,value
2018-11-21T00:00:12.784Z,0.00
2018-11-21T00:01:12.787Z,0.00
2018-11-21T00:02:12.758Z,0.00
2018-11-21T00:03:12.754Z,0.00
2018-11-21T00:04:12.739Z,0.00
2018-11-21T00:05:12.728Z,0.00
2018-11-21T00:06:12.715Z,0.00
2018-11-21T00:07:12.702Z,0.00
2018-11-21T00:08:12.696Z,0.00
2018-11-21T00:09:12.684Z,0.00
2018-11-21T00:10:12.670Z,0.00
2018-11-21T00:11:12.659Z,0.00
2018-11-21T00:12:12.649Z,0.00
2018-11-21T00:13:12.635Z,0.00
2018-11-21T00:14:12.632Z,0.00
2018-11-21T00:15:12.619Z,0.00
2018-11-21T00:16:12.599Z,0.00
2018-11-21T00:17:12.598Z,0.00
2018-11-21T00:18:12.579Z,0.00
2018-11-21T00:19:12.566Z,0.00
2018-11-21T00:20:12.551Z,0.00
2018-11-21T00:21:12.545Z,0.00
2018-11-21T00:22:12.537Z,0.00
2018-11-21T00:23:12.522Z,0.00
2018-11-21T00:24:12.508Z,0.00
2018-11-21T00:25:12.499Z,0.00
2018-11-21T00:26:12.495Z,0.00
2018-11-21T00:27:12.469Z,0.00
2018-11-21T00:28:12.459Z,0.00
2018-11-21T00:29:12.450Z,0.00
2018-11-21T00:30:12.455Z,0.00
2018-11-21T00:31:12.430Z,0.00
2018-11-21T00:32:12.417Z,0.00
2018-11-21T00:33:12.407Z,0.00
2018-11-21T00:34:12.408Z,0.00
2018-11-21T00:35:12.383Z,0.00
2018-11-21T00:36:12.373Z,0.00
2018-11-21T00:37:12.365Z,0.00
2018-11-21T00:38:12.351Z,0.00
2018-11-21T00:39:12.335Z,0.00
2018-11-21T00:40:12.325Z,0.00
2018-11-21T00:41:12.314Z,0.00
2018-11-21T00:42:12.302Z,0.00
2018-11-21T00:43:12.295Z,0.00
2018-11-21T00:44:12.277Z,0.00
2018-11-21T00:45:12.267Z,0.00
2018-11-21T00:46:12.260Z,0.00
2018-11-21T00:47:12.247Z,0.00
2018-11-21T00:48:12.233Z,0.00
2018-11-21T00:49:12.218Z,0.00
2018-11-21T00:50:12.209Z,0.00
2018-11-21T00:51:12.206Z,0.00
2018-11-21T00:52:12.183Z,0.00
2018-11-21T00:53:12.175Z,0.00
2018-11-21T00:54:12.161Z,0.00
2018-11-21T00:55:12.162Z,0.00
2018-11-21T00:56:12.137Z,0.00
2018-11-21T00:57:12.126Z,0.00
2018-11-21T00:58:12.116Z,0.00
2018-11-21T00:59:12.107Z,0.00
2018-11-21T01:00:12.094Z,0.00
2018-11-21T01:01:12.087Z,0.00
2018-11-21T01:02:12.072Z,0.00
2018-11-21T01:03:12.061Z,0.00
2018-11-21T01:04:12.065Z,0.00
2018-11-21T01:05:12.042Z,0.00
2018-11-21T01:06:12.029Z,0.00
2018-11-21T01:07:12.018Z,0.00
2018-11-21T01:08:12.003Z,0.00
2018-11-21T01:09:11.991Z,0.00
2018-11-21T01:10:11.977Z,0.00
2018-11-21T01:11:11.967Z,0.00
2018-11-21T01:12:11.953Z,0.00
2018-11-21T01:13:11.944Z,0.00
2018-11-21T01:14:11.938Z,0.00
2018-11-21T01:15:11.924Z,0.00
2018-11-21T01:16:11.910Z,0.00
2018-11-21T01:17:11.901Z,0.00
2018-11-21T01:18:11.886Z,0.00
2018-11-21T01:19:11.877Z,0.00
2018-11-21T01:20:11.865Z,0.00
2018-11-21T01:21:11.852Z,0.00
2018-11-21T01:22:11.841Z,0.00
2018-11-21T01:23:11.829Z,0.00
2018-11-21T01:24:11.825Z,0.00
2018-11-21T01:25:11.850Z,0.00
2018-11-21T01:26:11.797Z,0.00
2018-11-21T01:27:11.787Z,0.00
2018-11-21T01:28:11.770Z,0.00
2018-11-21T01:29:11.755Z,0.00
2018-11-21T01:30:11.791Z,0.00
2018-11-21T01:31:11.739Z,0.00
2018-11-21T01:32:11.726Z,0.00
2018-11-21T01:33:11.719Z,0.00
2018-11-21T01:34:11.714Z,0.00
2018-11-21T01:35:11.687Z,0.00
2018-11-21T01:36:11.679Z,0.00
2018-11-21T01:37:11.667Z,0.00
2018-11-21T01:38:11.651Z,0.00
2018-11-21T01:39:11.678Z,0.00
2018-11-21T01:40:11.640Z,0.00
2018-11-21T01:41:11.622Z,0.00
2018-11-21T01:42:11.604Z,0.00
2018-11-21T01:43:11.596Z,0.00
2018-11-21T01:44:11.584Z,0.00
2018-11-21T01:45:11.576Z,0.00
2018-11-21T01:46:11.560Z,0.00
2018-11-21T01:47:11.550Z,0.00
2018-11-21T01:48:11.534Z,0.00
2018-11-21T01:49:11.523Z,0.00
2018-11-21T01:50:11.511Z,0.00
2018-11-21T01:51:11.503Z,0.00
2018-11-21T01:52:11.488Z,0.00
2018-11-21T01:53:11.476Z,0.00
2018-11-21T01:54:11.464Z,0.00
2018-11-21T01:55:11.494Z,0.00
2018-11-21T01:56:11.440Z,0.00
2018-11-21T01:57:11.428Z,0.00
2018-11-21T01:58:11.415Z,0.00
2018-11-21T01:59:11.401Z,0.00
2018-11-21T02:00:11.390Z,0.00
2018-11-21T02:01:11.385Z,0.00
2018-11-21T02:02:11.378Z,0.00
2018-11-21T02:03:11.358Z,0.00
2018-11-21T02:04:11.349Z,0.00
2018-11-21T02:05:11.332Z,0.00
2018-11-21T02:06:11.327Z,0.00
2018-11-21T02:07:11.311Z,0.00
2018-11-21T02:08:11.299Z,0.00
2018-11-21T02:09:11.290Z,0.00
2018-11-21T02:10:11.282Z,0.00
2018-11-21T02:11:11.262Z,0.00
2018-11-21T02:12:11.250Z,0.00
2018-11-21T02:13:11.242Z,0.00
2018-11-21T02:14:11.229Z,0.00
2018-11-21T02:15:11.215Z,0.00
2018-11-21T02:16:11.200Z,0.00
2018-11-21T02:17:11.199Z,0.00
2018-11-21T02:18:11.185Z,0.00
2018-11-21T02:19:11.167Z,0.00
2018-11-21T02:20:11.158Z,0.00
2018-11-21T02:21:11.150Z,0.00
2018-11-21T02:22:11.129Z,0.00
2018-11-21T02:23:11.147Z,0.00
2018-11-21T02:24:11.113Z,0.00
2018-11-21T02:25:11.097Z,0.00
2018-11-21T02:26:11.093Z,0.00
2018-11-21T02:27:11.077Z,0.00
2018-11-21T02:28:11.061Z,0.00
2018-11-21T02:29:11.049Z,0.00
2018-11-21T02:30:11.042Z,0.00
2018-11-21T02:31:11.042Z,0.00
2018-11-21T02:32:11.021Z,0.00
2018-11-21T02:33:11.005Z,0.00
2018-11-21T02:34:10.994Z,0.00
2018-11-21T02:35:10.991Z,0.00
2018-11-21T02:36:10.965Z,0.00
2018-11-21T02:37:10.960Z,0.00
2018-11-21T02:38:10.948Z,0.00
2018-11-21T02:39:10.932Z,0.00
2018-11-21T02:40:10.918Z,0.00
2018-11-21T02:41:10.914Z,0.00
2018-11-21T02:42:10.901Z,0.00
2018-11-21T02:43:10.887Z,0.00
2018-11-21T02:44:10.883Z,0.00
2018-11-21T02:45:10.872Z,0.00
2018-11-21T02:46:10.851Z,0.00
2018-11-21T02:47:10.840Z,0.00
2018-11-21T02:48:10.821Z,0.00
2018-11-21T02:49:10.814Z,0.00
2018-11-21T02:50:10.798Z,0.00
2018-11-21T02:51:10.790Z,0.00
2018-11-21T02:52:10.831Z,0.00
2018-11-21T02:53:10.763Z,0.00
2018-11-21T02:54:10.758Z,0.00
2018-11-21T02:55:10.745Z,0.00
2018-11-21T02:56:10.734Z,0.00
2018-11-21T02:57:10.716Z,0.00
2018-11-21T02:58:10.711Z,0.00
2018-11-21T02:59:10.696Z,0.00
2018-11-21T03:00:10.684Z,0.00
2018-11-21T03:01:10.667Z,0.00
2018-11-21T03:02:10.660Z,0.00
2018-11-21T03:03:10.647Z,0.00
2018-11-21T03:04:10.634Z,0.00
2018-11-21T03:05:10.630Z,0.00
2018-11-21T03:06:10.615Z,0.00
2018-11-21T03:07:10.595Z,0.00
2018-11-21T03:08:10.589Z,0.00
2018-11-21T03:09:10.576Z,0.00
2018-11-21T03:10:10.561Z,0.00
2018-11-21T03:11:10.556Z,0.00
2018-11-21T03:12:10.541Z,0.00
2018-11-21T03:13:10.544Z,0.00
2018-11-21T03:14:10.517Z,0.00
2018-11-21T03:15:10.509Z,0.00
2018-11-21T03:16:10.491Z,0.00
2018-11-21T03:17:10.490Z,0.00
2018-11-21T03:18:10.464Z,0.00
2018-11-21T03:19:10.458Z,0.00
2018-11-21T03:20:10.440Z,0.00
2018-11-21T03:21:10.433Z,0.00
2018-11-21T03:22:10.418Z,0.00
2018-11-21T03:23:10.409Z,0.00
2018-11-21T03:24:10.393Z,0.00
2018-11-21T03:25:10.383Z,0.00
2018-11-21T03:26:10.375Z,0.00
2018-11-21T03:27:10.366Z,0.00
2018-11-21T03:28:10.346Z,0.00
2018-11-21T03:29:10.348Z,0.00
2018-11-21T03:30:10.324Z,0.00
2018-11-21T03:31:10.317Z,0.00
2018-11-21T03:32:10.302Z,0.00
2018-11-21T03:33:10.292Z,0.00
2018-11-21T03:34:10.286Z,0.00
2018-11-21T03:35:10.266Z,0.00
2018-11-21T03:36:10.256Z,0.00
2018-11-21T03:37:10.242Z,0.00
2018-11-21T03:38:10.232Z,0.00
2018-11-21T03:39:10.222Z,0.00
2018-11-21T03:40:10.206Z,0.00
2018-11-21T03:41:10.196Z,0.00
2018-11-21T03:42:10.193Z,0.00
2018-11-21T03:43:10.173Z,0.00
2018-11-21T03:44:10.163Z,0.00
2018-11-21T03:45:10.146Z,0.00
2018-11-21T03:46:10.142Z,0.00
2018-11-21T03:47:10.123Z,0.00
2018-11-21T03:48:10.119Z,0.00
2018-11-21T03:49:10.107Z,0.00
2018-11-21T03:50:10.095Z,0.00
2018-11-21T03:51:10.077Z,0.00
2018-11-21T03:52:10.070Z,0.00
2018-11-21T03:53:10.051Z,0.00
2018-11-21T03:54:10.043Z,0.00
2018-11-21T03:55:10.048Z,0.00
2018-11-21T03:56:10.019Z,0.00
2018-11-21T03:57:10.007Z,0.00
2018-11-21T03:58:09.997Z,0.00
2018-11-21T03:59:09.989Z,0.00
2018-11-21T04:00:09.970Z,0.00
2018-11-21T04:01:09.965Z,0.00
2018-11-21T04:02:09.949Z,0.00
2018-11-21T04:03:09.943Z,0.00
2018-11-21T04:04:09.924Z,0.00
2018-11-21T04:05:09.917Z,0.00
2018-11-21T04:06:09.904Z,0.00
2018-11-21T04:07:09.896Z,0.00
2018-11-21T04:08:09.879Z,0.00
2018-11-21T04:09:09.886Z,0.00
2018-11-21T04:10:09.858Z,0.00
2018-11-21T04:11:09.848Z,0.00
2018-11-21T04:12:09.829Z,0.00
2018-11-21T04:13:09.823Z,0.00
2018-11-21T04:14:09.810Z,0.00
2018-11-21T04:15:09.798Z,0.00
2018-11-21T04:16:09.789Z,0.00
2018-11-21T04:17:09.781Z,0.00
2018-11-21T04:18:09.764Z,0.00
2018-11-21T04:19:09.759Z,0.00
2018-11-21T04:20:09.737Z,0.00
2018-11-21T04:21:09.735Z,0.00
2018-11-21T04:22:09.724Z,0.00
2018-11-21T04:23:09.703Z,0.00
2018-11-21T04:24:09.695Z,0.00
2018-11-21T04:25:09.683Z,0.00
2018-11-21T04:26:09.670Z,0.00
2018-11-21T04:27:09.667Z,0.00
2018-11-21T04:28:09.645Z,0.00
2018-11-21T04:29:09.635Z,0.00
2018-11-21T04:30:09.623Z,0.00
2018-11-21T04:31:09.620Z,0.00
2018-11-21T04:32:09.607Z,0.00
2018-11-21T04:33:09.585Z,0.00
2018-11-21T04:34:09.576Z,0.00
2018-11-21T04:35:09.568Z,0.00
2018-11-21T04:36:09.557Z,0.00
2018-11-21T04:37:09.540Z,0.00
2018-11-21T04:38:09.535Z,0.00
2018-11-21T04:39:09.524Z,0.00
2018-11-21T04:40:09.506Z,0.00
2018-11-21T04:41:09.494Z,0.00
2018-11-21T04:42:09.487Z,0.00
2018-11-21T04:43:09.472Z,0.00
2018-11-21T04:44:09.468Z,0.00
2018-11-21T04:45:09.448Z,0.00
2018-11-21T04:46:09.439Z,0.00
2018-11-21T04:47:09.428Z,0.00
2018-11-21T04:48:09.416Z,0.00
2018-11-21T04:49:09.412Z,0.00
2018-11-21T04:50:09.390Z,0.00
2018-11-21T04:51:09.378Z,0.00
2018-11-21T04:52:09.370Z,0.00
2018-11-21T04:53:09.369Z,0.00
2018-11-21T04:54:09.346Z,0.00
2018-11-21T04:55:09.336Z,0.00
2018-11-21T04:56:09.322Z,0.00
2018-11-21T04:57:09.311Z,0.00
2018-11-21T04:58:09.307Z,0.00
2018-11-21T04:59:09.291Z,0.00
2018-11-21T05:00:09.276Z,0.00
2018-11-21T05:01:09.265Z,0.00
2018-11-21T05:02:09.257Z,0.00
2018-11-21T05:03:09.240Z,0.00
2018-11-21T05:04:09.231Z,0.00
2018-11-21T05:05:09.217Z,0.00
2018-11-21T05:06:09.204Z,0.00
2018-11-21T05:07:09.195Z,0.00
2018-11-21T05:08:09.180Z,0.00
2018-11-21T05:09:09.176Z,0.00
2018-11-21T05:10:09.160Z,0.00
2018-11-21T05:11:09.149Z,0.00
2018-11-21T05:12:09.138Z,0.00
2018-11-21T05:13:09.123Z,0.00
2018-11-21T05:14:09.113Z,0.00
2018-11-21T05:15:09.108Z,0.00
2018-11-21T05:16:09.091Z,0.00
2018-11-21T05:17:09.082Z,0.00
2018-11-21T05:18:09.073Z,0.00
2018-11-21T05:19:09.055Z,0.00
2018-11-21T05:20:09.044Z,0.00
2018-11-21T05:21:09.039Z,0.00
2018-11-21T05:22:09.020Z,0.00
2018-11-21T05:23:09.013Z,0.00
2018-11-21T05:24:09.004Z,0.00
2018-11-21T05:25:09.000Z,0.00
2018-11-21T05:26:08.974Z,0.00
2018-11-21T05:27:08.966Z,0.00
2018-11-21T05:28:08.954Z,0.00
2018-11-21T05:29:08.937Z,0.00
2018-11-21T05:30:08.925Z,0.00
2018-11-21T05:31:08.915Z,0.00
2018-11-21T05:32:08.906Z,0.00
2018-11-21T05:33:08.902Z,0.00
2018-11-21T05:34:08.882Z,0.00
2018-11-21T05:35:08.877Z,0.00
2018-11-21T05:36:08.859Z,0.00
2018-11-21T05:37:08.843Z,0.00
2018-11-21T05:38:08.837Z,0.00
2018-11-21T05:39:08.821Z,0.00
2018-11-21T05:40:08.811Z,0.00
2018-11-21T05:41:08.805Z,0.00
2018-11-21T05:42:08.793Z,0.00
2018-11-21T05:43:08.776Z,0.00
2018-11-21T05:44:08.765Z,0.00
2018-11-21T05:45:08.751Z,0.00
2018-11-21T05:46:08.740Z,0.00
2018-11-21T05:47:08.729Z,0.00
2018-11-21T05:48:08.715Z,0.00
2018-11-21T05:49:08.702Z,0.00
2018-11-21T05:50:08.692Z,0.00
2018-11-21T05:51:08.687Z,0.00
2018-11-21T05:52:08.669Z,0.00
2018-11-21T05:53:08.655Z,0.00
2018-11-21T05:54:08.647Z,0.00
2018-11-21T05:55:08.642Z,0.00
2018-11-21T05:56:08.620Z,0.00
2018-11-21T05:57:08.618Z,0.00
2018-11-21T05:58:08.602Z,0.00
2018-11-21T05:59:08.585Z,0.00
2018-11-21T06:00:08.574Z,0.00
2018-11-21T06:01:08.560Z,0.00
2018-11-21T06:02:08.559Z,0.00
2018-11-21T06:03:08.539Z,0.00
2018-11-21T06:04:08.526Z,0.00
2018-11-21T06:05:08.514Z,0.00
2018-11-21T06:06:10.085Z,0.00
2018-11-21T06:07:08.502Z,0.00
2018-11-21T06:08:08.479Z,0.00
2018-11-21T06:09:08.468Z,4.00
2018-11-21T06:10:08.454Z,0.00
2018-11-21T06:11:08.444Z,0.00
2018-11-21T06:12:08.434Z,4.00
2018-11-21T06:13:08.421Z,4.00
2018-11-21T06:14:08.407Z,4.00
2018-11-21T06:15:08.401Z,4.00
2018-11-21T06:16:08.386Z,4.00
2018-11-21T06:17:08.372Z,8.00
2018-11-21T06:18:08.361Z,8.00
2018-11-21T06:19:08.351Z,4.00
2018-11-21T06:20:08.334Z,8.00
2018-11-21T06:21:08.325Z,8.00
2018-11-21T06:22:08.314Z,8.00
2018-11-21T06:23:08.301Z,8.00
2018-11-21T06:24:08.299Z,12.00
2018-11-21T06:25:08.277Z,12.00
2018-11-21T06:26:08.328Z,16.00
2018-11-21T06:27:08.255Z,16.00
2018-11-21T06:28:08.243Z,16.00
2018-11-21T06:29:08.239Z,20.00
2018-11-21T06:30:08.218Z,24.00
2018-11-21T06:31:08.207Z,20.00
2018-11-21T06:32:08.199Z,20.00
2018-11-21T06:33:08.182Z,24.00
2018-11-21T06:34:08.171Z,28.00
2018-11-21T06:35:08.169Z,32.00
2018-11-21T06:36:08.146Z,36.00
2018-11-21T06:37:08.150Z,36.00
2018-11-21T06:38:08.122Z,40.00
2018-11-21T06:39:08.113Z,44.00
2018-11-21T06:40:08.097Z,48.00
2018-11-21T06:41:08.084Z,52.00
2018-11-21T06:42:08.075Z,56.00
2018-11-21T06:43:08.067Z,64.00
2018-11-21T06:44:08.048Z,68.00
2018-11-21T06:45:08.042Z,72.00
2018-11-21T06:46:08.032Z,80.00
2018-11-21T06:47:08.017Z,88.00
2018-11-21T06:48:08.003Z,88.00
2018-11-21T06:49:07.991Z,92.00
2018-11-21T06:50:07.997Z,108.00
2018-11-21T06:51:07.969Z,124.00
2018-11-21T06:52:07.953Z,132.00
2018-11-21T06:53:07.945Z,136.00
2018-11-21T06:54:07.931Z,136.00
2018-11-21T06:55:07.921Z,148.00
2018-11-21T06:56:07.910Z,172.00
2018-11-21T06:57:07.904Z,168.00
2018-11-21T06:58:07.882Z,176.00
2018-11-21T06:59:07.872Z,184.00
2018-11-21T07:00:07.862Z,184.00
2018-11-21T07:01:07.847Z,184.00
2018-11-21T07:02:07.839Z,200.00
2018-11-21T07:03:07.836Z,204.00
2018-11-21T07:04:07.811Z,216.00
2018-11-21T07:05:07.803Z,232.00
2018-11-21T07:06:07.796Z,244.00
2018-11-21T07:07:07.840Z,264.00
2018-11-21T07:08:07.773Z,288.00
2018-11-21T07:09:07.757Z,324.00
2018-11-21T07:10:07.743Z,320.00
2018-11-21T07:11:07.732Z,348.00
2018-11-21T07:12:07.719Z,344.00
2018-11-21T07:13:10.946Z,332.00
2018-11-21T07:14:07.705Z,324.00
2018-11-21T07:15:07.685Z,340.00
2018-11-21T07:16:07.671Z,384.00
2018-11-21T07:17:07.661Z,396.00
2018-11-21T07:18:07.657Z,392.00
2018-11-21T07:19:07.639Z,432.00
2018-11-21T07:20:07.627Z,440.00
2018-11-21T07:21:07.614Z,532.00
2018-11-21T07:22:07.601Z,584.00
2018-11-21T07:23:07.594Z,608.00
2018-11-21T07:24:07.577Z,564.00
2018-11-21T07:25:07.577Z,564.00
2018-11-21T07:26:07.554Z,588.00
2018-11-21T07:27:07.541Z,616.00
2018-11-21T07:28:12.996Z,580.00
2018-11-21T07:29:07.519Z,548.00
2018-11-21T07:30:07.516Z,528.00
2018-11-21T07:31:07.495Z,564.00
2018-11-21T07:32:07.478Z,580.00
2018-11-21T07:33:07.471Z,572.00
2018-11-21T07:34:07.458Z,540.00
2018-11-21T07:35:07.526Z,588.00
2018-11-21T07:36:07.434Z,624.00
2018-11-21T07:37:07.425Z,632.00
2018-11-21T07:38:07.413Z,604.00
2018-11-21T07:39:07.400Z,608.00
2018-11-21T07:40:07.393Z,588.00
2018-11-21T07:41:07.379Z,536.00
2018-11-21T07:42:07.363Z,560.00
2018-11-21T07:43:07.350Z,600.00
2018-11-21T07:44:07.341Z,664.00
2018-11-21T07:45:07.329Z,704.00
2018-11-21T07:46:07.314Z,736.00
2018-11-21T07:47:07.308Z,732.00
2018-11-21T07:48:07.294Z,664.00
2018-11-21T07:49:07.335Z,696.00
2018-11-21T07:50:07.271Z,676.00
2018-11-21T07:51:07.259Z,644.00
2018-11-21T07:52:07.251Z,724.00
2018-11-21T07:53:07.231Z,784.00
2018-11-21T07:54:07.223Z,816.00
2018-11-21T07:55:07.214Z,836.00
2018-11-21T07:56:07.345Z,944.00
2018-11-21T07:57:08.052Z,996.00
2018-11-21T07:58:07.170Z,1072.00
2018-11-21T07:59:07.165Z,1016.00
2018-11-21T08:00:07.151Z,1044.00
2018-11-21T08:01:07.437Z,956.00
2018-11-21T08:02:07.127Z,972.00
2018-11-21T08:03:07.114Z,1000.00
2018-11-21T08:04:07.102Z,1064.00
2018-11-21T08:05:07.087Z,1024.00
2018-11-21T08:06:07.079Z,1024.00
2018-11-21T08:07:07.069Z,1024.00
2018-11-21T08:08:07.054Z,1032.00
2018-11-21T08:09:07.042Z,1056.00
2018-11-21T08:10:07.032Z,1084.00
2018-11-21T08:11:07.022Z,1088.00
2018-11-21T08:12:07.008Z,1056.00
2018-11-21T08:13:07.001Z,1116.00
2018-11-21T08:14:06.990Z,1132.00
2018-11-21T08:15:08.149Z,1104.00
2018-11-21T08:16:06.956Z,1156.00
2018-11-21T08:17:06.947Z,1156.00
2018-11-21T08:18:06.941Z,1120.00
2018-11-21T08:19:06.925Z,1292.00
2018-11-21T08:20:06.908Z,1256.00
2018-11-21T08:21:06.910Z,1276.00
2018-11-21T08:22:06.890Z,1248.00
2018-11-21T08:23:06.877Z,1348.00
2018-11-21T08:24:06.870Z,1488.00
2018-11-21T08:25:06.855Z,1512.00
2018-11-21T08:26:06.839Z,1536.00
2018-11-21T08:27:06.832Z,1456.00
2018-11-21T08:28:06.820Z,1448.00
2018-11-21T08:29:06.807Z,1380.00
2018-11-21T08:30:06.797Z,1344.00
2018-11-21T08:31:06.788Z,1336.00
2018-11-21T08:32:06.772Z,1448.00
2018-11-21T08:33:06.760Z,1424.00
2018-11-21T08:34:06.750Z,1392.00
2018-11-21T08:35:06.739Z,1360.00
2018-11-21T08:36:06.726Z,1280.00
2018-11-21T08:37:06.716Z,1456.00
2018-11-21T08:38:06.704Z,1444.00
2018-11-21T08:39:06.693Z,1408.00
2018-11-21T08:40:06.677Z,1408.00
2018-11-21T08:41:06.668Z,1340.00
2018-11-21T08:42:07.263Z,1176.00
2018-11-21T08:43:06.986Z,1060.00
2018-11-21T08:44:06.724Z,1052.00
2018-11-21T08:45:06.785Z,1112.00
2018-11-21T08:46:06.922Z,1124.00
2018-11-21T08:47:06.747Z,1244.00
2018-11-21T08:48:07.009Z,1384.00
2018-11-21T08:49:06.973Z,1568.00
2018-11-21T08:50:07.013Z,1472.00
2018-11-21T08:51:06.878Z,1384.00
2018-11-21T08:52:06.928Z,1344.00
2018-11-21T08:53:06.798Z,1192.00
2018-11-21T08:54:06.837Z,1368.00
2018-11-21T08:55:09.008Z,1476.00
2018-11-21T08:56:06.611Z,1612.00
2018-11-21T08:57:06.641Z,1756.00
2018-11-21T08:58:06.471Z,1660.00
2018-11-21T08:59:06.644Z,1576.00
2018-11-21T09:00:07.792Z,1604.00
2018-11-21T09:01:06.951Z,1468.00
2018-11-21T09:02:06.546Z,1572.00
2018-11-21T09:03:06.685Z,1792.00
2018-11-21T09:04:06.747Z,1920.00
2018-11-21T09:05:06.652Z,1756.00
2018-11-21T09:06:06.383Z,1676.00
2018-11-21T09:07:06.449Z,1580.00
2018-11-21T09:08:06.812Z,1540.00
2018-11-21T09:09:06.610Z,1540.00
2018-11-21T09:10:06.677Z,1356.00
2018-11-21T09:11:06.378Z,1192.00
2018-11-21T09:12:08.723Z,1136.00
2018-11-21T09:13:06.454Z,1092.00
2018-11-21T09:14:06.499Z,1064.00
2018-11-21T09:15:06.560Z,1032.00
2018-11-21T09:16:06.469Z,1008.00
2018-11-21T09:17:06.756Z,1032.00
2018-11-21T09:18:06.538Z,1236.00
2018-11-21T09:19:06.327Z,1568.00
2018-11-21T09:20:06.773Z,1784.00
2018-11-21T09:21:06.369Z,1768.00
2018-11-21T09:22:06.196Z,1912.00
2018-11-21T09:23:06.596Z,1864.00
2018-11-21T09:24:06.490Z,1680.00
2018-11-21T09:25:06.152Z,1576.00
2018-11-21T09:26:06.444Z,1576.00
2018-11-21T09:27:06.130Z,1580.00
2018-11-21T09:28:06.117Z,1564.00
2018-11-21T09:29:06.787Z,1572.00
2018-11-21T09:30:06.282Z,1736.00
2018-11-21T09:31:06.084Z,1636.00
2018-11-21T09:32:06.074Z,1536.00
2018-11-21T09:33:06.057Z,1624.00
2018-11-21T09:34:06.371Z,1668.00
2018-11-21T09:35:06.041Z,1596.00
2018-11-21T09:36:06.030Z,1548.00
2018-11-21T09:37:06.015Z,1512.00
2018-11-21T09:38:06.502Z,1596.00
2018-11-21T09:39:06.590Z,1532.00
2018-11-21T09:40:06.293Z,1552.00
2018-11-21T09:41:06.194Z,1576.00
2018-11-21T09:42:06.424Z,1484.00
2018-11-21T09:43:06.228Z,1352.00
2018-11-21T09:44:06.728Z,1288.00
2018-11-21T09:45:06.144Z,1284.00
2018-11-21T09:46:06.056Z,1352.00
2018-11-21T09:47:06.544Z,1384.00
2018-11-21T09:48:05.901Z,1448.00
2018-11-21T09:49:06.014Z,1428.00
2018-11-21T09:50:06.095Z,1448.00
2018-11-21T09:51:06.681Z,1524.00
2018-11-21T09:52:06.453Z,1536.00
2018-11-21T09:53:06.167Z,1356.00
2018-11-21T09:54:05.973Z,1500.00
2018-11-21T09:55:05.955Z,1372.00
2018-11-21T09:56:05.988Z,1496.00
2018-11-21T09:57:06.944Z,1400.00
2018-11-21T09:58:06.217Z,1416.00
2018-11-21T09:59:06.123Z,1396.00
2018-11-21T10:00:05.874Z,1380.00
2018-11-21T10:01:06.023Z,1372.00
2018-11-21T10:02:06.155Z,1324.00
2018-11-21T10:03:05.953Z,1296.00
2018-11-21T10:04:05.884Z,1256.00
2018-11-21T10:05:05.748Z,1204.00
2018-11-21T10:06:05.939Z,1172.00
2018-11-21T10:07:05.754Z,1216.00
2018-11-21T10:08:05.822Z,1280.00
2018-11-21T10:09:05.680Z,1308.00
2018-11-21T10:10:06.080Z,1304.00
2018-11-21T10:11:05.935Z,1236.00
2018-11-21T10:12:05.726Z,1180.00
2018-11-21T10:13:05.953Z,1272.00
2018-11-21T10:14:05.792Z,1204.00
2018-11-21T10:15:06.417Z,1168.00
2018-11-21T10:16:05.675Z,1120.00
2018-11-21T10:17:05.631Z,1152.00
2018-11-21T10:18:05.842Z,1100.00
2018-11-21T10:19:05.856Z,1064.00
2018-11-21T10:20:06.176Z,1048.00
2018-11-21T10:21:05.493Z,1164.00
2018-11-21T10:22:05.757Z,1184.00
2018-11-21T10:23:06.846Z,1216.00
2018-11-21T10:24:05.764Z,1252.00
2018-11-21T10:25:05.574Z,1276.00
2018-11-21T10:26:05.454Z,1300.00
2018-11-21T10:27:05.628Z,1260.00
2018-11-21T10:28:05.506Z,1224.00
2018-11-21T10:29:05.594Z,1356.00
2018-11-21T10:30:05.722Z,1272.00
2018-11-21T10:31:05.463Z,1388.00
2018-11-21T10:32:05.385Z,1224.00
2018-11-21T10:33:05.514Z,1336.00
2018-11-21T10:34:06.601Z,1264.00
2018-11-21T10:35:05.436Z,1280.00
2018-11-21T10:36:05.440Z,1276.00
2018-11-21T10:37:05.574Z,1276.00
2018-11-21T10:38:05.569Z,1272.00
2018-11-21T10:39:05.622Z,1320.00
2018-11-21T10:40:05.389Z,1216.00
2018-11-21T10:41:05.538Z,1356.00
2018-11-21T10:42:05.393Z,1332.00
2018-11-21T10:43:05.412Z,1408.00
2018-11-21T10:44:05.305Z,1408.00
2018-11-21T10:45:05.323Z,1348.00
2018-11-21T10:46:05.421Z,1272.00
2018-11-21T10:47:06.162Z,1328.00
2018-11-21T10:48:05.568Z,1204.00
2018-11-21T10:49:05.301Z,1280.00
2018-11-21T10:50:05.693Z,1300.00
2018-11-21T10:51:05.516Z,1424.00
2018-11-21T10:52:05.393Z,1388.00
2018-11-21T10:53:05.400Z,1420.00
2018-11-21T10:54:05.721Z,1440.00
2018-11-21T10:55:05.284Z,1512.00
2018-11-21T10:56:05.198Z,1420.00
2018-11-21T10:57:05.084Z,1500.00
2018-11-21T10:58:05.285Z,1516.00
2018-11-21T10:59:05.410Z,1516.00
2018-11-21T11:00:05.047Z,1564.00
2018-11-21T11:01:05.035Z,1520.00
2018-11-21T11:02:05.029Z,1548.00
2018-11-21T11:03:05.016Z,1564.00
2018-11-21T11:04:05.046Z,1580.00
2018-11-21T11:05:04.993Z,1496.00
2018-11-21T11:06:05.004Z,1588.00
2018-11-21T11:07:04.965Z,1660.00
2018-11-21T11:08:05.026Z,1568.00
2018-11-21T11:09:04.968Z,1624.00
2018-11-21T11:10:04.972Z,1556.00
2018-11-21T11:11:04.916Z,1532.00
2018-11-21T11:12:04.909Z,1528.00
2018-11-21T11:13:05.112Z,1628.00
2018-11-21T11:14:04.885Z,1592.00
2018-11-21T11:15:04.947Z,1668.00
2018-11-21T11:16:04.973Z,1596.00
2018-11-21T11:17:04.906Z,1660.00
2018-11-21T11:18:04.883Z,1480.00
2018-11-21T11:19:04.835Z,1384.00
2018-11-21T11:20:08.590Z,1472.00
2018-11-21T11:21:05.160Z,1356.00
2018-11-21T11:22:04.873Z,1432.00
2018-11-21T11:23:05.173Z,1348.00
2018-11-21T11:24:05.247Z,1332.00
2018-11-21T11:25:05.036Z,1344.00
2018-11-21T11:26:04.864Z,1236.00
2018-11-21T11:27:05.038Z,1272.00
2018-11-21T11:28:04.984Z,1260.00
2018-11-21T11:29:04.997Z,1288.00
2018-11-21T11:30:04.975Z,1360.00
2018-11-21T11:31:05.568Z,1408.00
2018-11-21T11:32:05.813Z,1620.00
2018-11-21T11:33:05.449Z,1556.00
2018-11-21T11:34:05.053Z,1580.00
2018-11-21T11:35:05.309Z,1652.00
2018-11-21T11:36:05.410Z,1624.00
2018-11-21T11:37:04.719Z,1844.00
2018-11-21T11:38:04.945Z,1952.00
2018-11-21T11:39:05.090Z,1872.00
2018-11-21T11:40:05.156Z,1596.00
2018-11-21T11:41:05.601Z,1748.00
2018-11-21T11:42:04.945Z,1608.00
2018-11-21T11:43:05.412Z,1520.00
2018-11-21T11:44:04.546Z,1620.00
2018-11-21T11:45:05.124Z,1604.00
2018-11-21T11:46:04.980Z,1776.00
2018-11-21T11:47:05.093Z,1808.00
2018-11-21T11:48:05.692Z,1988.00
2018-11-21T11:49:04.836Z,1824.00
2018-11-21T11:50:04.551Z,2044.00
2018-11-21T11:51:05.224Z,2068.00
2018-11-21T11:52:05.147Z,2180.00
2018-11-21T11:53:04.836Z,2320.00
2018-11-21T11:54:05.349Z,2260.00
2018-11-21T11:55:04.979Z,2172.00
2018-11-21T11:56:04.493Z,2004.00
2018-11-21T11:57:04.913Z,1820.00
2018-11-21T11:58:04.375Z,1756.00
2018-11-21T11:59:04.366Z,1660.00
2018-11-21T12:00:04.351Z,1716.00
2018-11-21T12:01:04.344Z,1688.00
2018-11-21T12:02:04.334Z,1568.00
2018-11-21T12:03:04.317Z,1496.00
2018-11-21T12:04:04.314Z,1496.00
2018-11-21T12:05:04.296Z,1560.00
2018-11-21T12:06:04.283Z,1688.00
2018-11-21T12:07:04.272Z,1492.00
2018-11-21T12:08:04.261Z,1480.00
2018-11-21T12:09:04.247Z,1480.00
2018-11-21T12:10:04.238Z,1356.00
2018-11-21T12:11:04.230Z,1356.00
2018-11-21T12:12:05.032Z,1408.00
2018-11-21T12:13:04.206Z,1340.00
2018-11-21T12:14:04.208Z,1300.00
2018-11-21T12:15:04.181Z,1388.00
2018-11-21T12:16:04.167Z,1416.00
2018-11-21T12:17:04.158Z,1524.00
2018-11-21T12:18:04.147Z,1532.00
2018-11-21T12:19:04.139Z,1512.00
2018-11-21T12:20:04.197Z,1548.00
2018-11-21T12:21:04.111Z,1540.00
2018-11-21T12:22:04.099Z,1568.00
2018-11-21T12:23:04.088Z,1580.00
2018-11-21T12:24:04.078Z,1504.00
2018-11-21T12:25:04.065Z,1544.00
2018-11-21T12:26:10.213Z,1592.00
2018-11-21T12:27:04.044Z,1544.00
2018-11-21T12:28:04.028Z,1604.00
2018-11-21T12:29:04.020Z,1636.00
2018-11-21T12:30:04.010Z,1684.00
2018-11-21T12:31:04.006Z,1736.00
2018-11-21T12:32:03.987Z,1676.00
2018-11-21T12:33:03.975Z,1680.00
2018-11-21T12:34:03.970Z,1672.00
2018-11-21T12:35:03.954Z,1572.00
2018-11-21T12:36:03.987Z,1712.00
2018-11-21T12:37:03.935Z,1672.00
2018-11-21T12:38:03.922Z,1612.00
2018-11-21T12:39:03.908Z,1620.00
2018-11-21T12:40:03.902Z,1524.00
2018-11-21T12:41:03.885Z,1480.00
2018-11-21T12:42:03.875Z,1464.00
2018-11-21T12:43:03.867Z,1448.00
2018-11-21T12:44:03.854Z,1504.00